createdAt,value
2022-09-13T00:02:08.128Z,11.10
2022-09-13T00:07:08.165Z,12.40
2022-09-13T00:12:08.781Z,12.40
2022-09-13T00:17:07.578Z,16.50
2022-09-13T00:22:07.346Z,14.70
2022-09-13T00:27:06.521Z,14.90
2022-09-13T00:32:06.268Z,11.30
2022-09-13T00:37:06.167Z,13.10
2022-09-13T00:42:06.305Z,16.20
2022-09-13T00:47:05.794Z,14.70
2022-09-13T00:52:17.659Z,12.40
2022-09-13T00:57:22.817Z,16.20
2022-09-13T01:02:22.689Z,15.30
2022-09-13T01:07:23.079Z,14.10
2022-09-13T01:12:35.570Z,16.60
2022-09-13T01:17:36.770Z,17.30
2022-09-13T01:23:15.066Z,17.10
2022-09-13T01:28:38.926Z,14.80
2022-09-13T01:33:54.902Z,15.10
2022-09-13T01:39:05.376Z,15.90
2022-09-13T01:44:21.012Z,15.70
2022-09-13T01:49:31.561Z,15.80
2022-09-13T01:54:47.806Z,16.00
2022-09-13T01:59:55.631Z,16.00
2022-09-13T02:05:03.708Z,15.90
2022-09-13T02:10:11.306Z,14.20
2022-09-13T02:15:18.239Z,15.10
2022-09-13T02:20:23.757Z,14.30
2022-09-13T02:25:26.852Z,13.50
2022-09-13T02:30:26.685Z,16.40
2022-09-13T02:35:32.903Z,17.80
2022-09-13T02:40:40.580Z,18.30
2022-09-13T02:45:52.855Z,22.00
2022-09-13T02:51:04.431Z,22.50
2022-09-13T02:56:23.308Z,24.20
2022-09-13T03:01:23.100Z,18.40
2022-09-13T03:06:30.075Z,19.40
2022-09-13T03:11:51.076Z,23.10
2022-09-13T03:17:10.434Z,23.70
2022-09-13T03:22:32.867Z,21.00
2022-09-13T03:27:40.040Z,18.90
2022-09-13T03:32:52.869Z,19.40
2022-09-13T03:38:03.473Z,21.00
2022-09-13T03:43:10.171Z,18.10
2022-09-13T03:48:12.309Z,19.70
2022-09-13T03:53:16.617Z,18.20
2022-09-13T03:58:19.913Z,18.30
2022-09-13T04:03:20.285Z,21.40
2022-09-13T04:08:18.842Z,24.50
2022-09-13T04:13:18.381Z,22.80
2022-09-13T04:18:18.086Z,25.50
2022-09-13T04:23:16.915Z,23.60
2022-09-13T04:28:15.687Z,27.60
2022-09-13T04:33:14.838Z,26.40
2022-09-13T04:38:14.770Z,20.90
2022-09-13T04:43:13.689Z,18.70
2022-09-13T04:48:12.881Z,19.60
2022-09-13T04:53:12.486Z,15.40
2022-09-13T04:58:11.622Z,17.00
2022-09-13T05:03:10.381Z,16.40
2022-09-13T05:08:09.699Z,15.30
2022-09-13T05:13:09.532Z,15.90
2022-09-13T05:18:11.637Z,17.40
2022-09-13T05:23:10.820Z,15.10
2022-09-13T05:28:09.624Z,14.50
2022-09-13T05:33:09.077Z,18.90
2022-09-13T05:38:08.108Z,19.10
2022-09-13T05:43:06.885Z,23.40
2022-09-13T05:48:06.658Z,18.10
2022-09-13T05:53:05.845Z,25.50
2022-09-13T05:58:05.822Z,19.10
2022-09-13T06:03:05.485Z,72.00
2022-09-13T06:08:04.408Z,49.30
2022-09-13T06:13:03.425Z,29.60
2022-09-13T06:18:02.318Z,28.50
2022-09-13T06:23:01.766Z,23.30
2022-09-13T06:28:00.903Z,24.90
2022-09-13T06:33:05.120Z,28.60
2022-09-13T06:38:04.542Z,30.90
2022-09-13T06:43:03.848Z,21.60
2022-09-13T06:48:02.360Z,25.30
2022-09-13T06:53:02.423Z,26.00
2022-09-13T06:58:01.821Z,29.70
2022-09-13T07:03:01.393Z,28.50
2022-09-13T07:08:00.847Z,36.30
2022-09-13T07:12:59.795Z,33.50
2022-09-13T07:17:59.530Z,38.30
2022-09-13T07:22:58.183Z,35.40
2022-09-13T07:27:57.322Z,32.10
2022-09-13T07:32:56.378Z,32.40
2022-09-13T07:37:55.457Z,29.20
2022-09-13T07:42:55.198Z,32.20
2022-09-13T07:47:54.518Z,31.00
2022-09-13T07:52:54.038Z,31.90
2022-09-13T07:57:53.707Z,30.90
2022-09-13T08:02:52.315Z,30.30
2022-09-13T08:07:52.102Z,27.80
2022-09-13T08:12:51.542Z,25.80
2022-09-13T08:17:51.052Z,26.40
2022-09-13T08:22:49.616Z,25.40
2022-09-13T08:27:48.464Z,25.60
2022-09-13T08:32:46.873Z,18.90
2022-09-13T08:37:45.842Z,21.50
2022-09-13T08:43:01.430Z,21.50
2022-09-13T08:48:06.696Z,21.40
2022-09-13T08:53:19.215Z,19.00
2022-09-13T08:58:44.328Z,17.60
2022-09-13T09:03:55.515Z,18.60
2022-09-13T09:09:04.247Z,16.00
2022-09-13T09:14:13.532Z,15.00
2022-09-13T09:19:30.721Z,12.00
2022-09-13T09:24:32.558Z,12.40
2022-09-13T09:29:36.460Z,11.20
2022-09-13T09:34:51.317Z,11.50
2022-09-13T09:39:51.506Z,6.50
2022-09-13T09:44:54.669Z,7.60
2022-09-13T09:50:13.171Z,6.80
2022-09-13T09:55:29.037Z,4.90
2022-09-13T10:00:31.650Z,7.20
2022-09-13T10:05:32.960Z,5.40
2022-09-13T10:10:42.755Z,5.00
2022-09-13T10:15:58.345Z,3.90
2022-09-13T10:21:24.569Z,4.20
2022-09-13T10:26:26.929Z,5.20
2022-09-13T10:31:32.801Z,5.10
2022-09-13T10:36:56.501Z,3.80
2022-09-13T10:42:02.786Z,5.60
2022-09-13T10:47:06.431Z,5.60
2022-09-13T10:52:27.012Z,3.10
2022-09-13T10:57:38.876Z,4.50
2022-09-13T11:03:09.225Z,5.70
2022-09-13T11:08:33.987Z,4.00
2022-09-13T11:13:49.837Z,6.20
2022-09-13T11:19:29.207Z,5.70
2022-09-13T11:24:57.833Z,5.70
2022-09-13T11:30:29.837Z,3.40
2022-09-13T11:35:48.136Z,5.20
2022-09-13T11:40:58.713Z,6.30
2022-09-13T11:46:11.596Z,3.60
2022-09-13T11:51:32.031Z,4.80
2022-09-13T11:56:39.270Z,3.50
2022-09-13T12:01:46.909Z,5.60
2022-09-13T12:06:52.013Z,4.60
2022-09-13T12:11:56.390Z,3.30
2022-09-13T12:17:00.808Z,4.20
2022-09-13T12:22:05.527Z,4.40
2022-09-13T12:27:13.553Z,3.90
2022-09-13T12:32:15.163Z,5.70
2022-09-13T12:37:47.426Z,6.10
2022-09-13T12:43:14.284Z,4.00
2022-09-13T12:48:41.400Z,4.40
2022-09-13T12:54:21.144Z,6.40
2022-09-13T12:59:40.729Z,3.60
2022-09-13T13:04:42.042Z,4.50
2022-09-13T13:09:46.043Z,5.20
2022-09-13T13:14:54.745Z,7.60
2022-09-13T13:19:54.042Z,4.90
2022-09-13T13:24:53.250Z,5.60
2022-09-13T13:30:48.479Z,6.90
2022-09-13T13:35:48.165Z,7.30
2022-09-13T13:40:50.827Z,4.90
2022-09-13T13:46:33.848Z,6.30
2022-09-13T13:51:36.265Z,6.00
2022-09-13T13:56:49.305Z,7.20
2022-09-13T14:01:55.925Z,8.00
2022-09-13T14:07:19.450Z,8.20
2022-09-13T14:12:57.871Z,5.70
2022-09-13T14:18:49.751Z,6.90
2022-09-13T14:23:49.178Z,6.50
2022-09-13T14:28:48.628Z,6.60
2022-09-13T14:33:47.819Z,7.60
2022-09-13T14:38:55.653Z,6.70
2022-09-13T14:43:55.432Z,7.20
2022-09-13T14:48:59.385Z,7.20
2022-09-13T14:54:05.632Z,9.00
2022-09-13T14:59:13.793Z,6.60
2022-09-13T15:04:13.416Z,7.20
2022-09-13T15:09:31.608Z,6.10
2022-09-13T15:14:38.175Z,9.00
2022-09-13T15:20:03.392Z,8.40
2022-09-13T15:25:05.280Z,7.70
2022-09-13T15:30:08.851Z,9.10
2022-09-13T15:35:23.534Z,8.40
2022-09-13T15:40:28.243Z,8.90
2022-09-13T15:45:27.829Z,8.00
2022-09-13T15:50:32.015Z,9.30
2022-09-13T15:55:32.633Z,7.60
2022-09-13T16:00:32.798Z,9.60
2022-09-13T16:05:32.390Z,8.50
2022-09-13T16:10:33.172Z,8.20
2022-09-13T16:15:32.669Z,6.40
2022-09-13T16:20:35.195Z,8.30
2022-09-13T16:25:35.247Z,9.20
2022-09-13T16:30:35.744Z,7.70
2022-09-13T16:35:36.970Z,10.40
2022-09-13T16:40:36.246Z,9.00
2022-09-13T16:45:36.554Z,9.80
2022-09-13T16:50:36.288Z,9.50
2022-09-13T16:55:35.541Z,9.80
2022-09-13T17:00:34.877Z,10.00
2022-09-13T17:05:34.724Z,11.30
2022-09-13T17:10:34.021Z,10.90
2022-09-13T17:15:33.644Z,8.40
2022-09-13T17:20:35.134Z,10.70
2022-09-13T17:25:36.478Z,11.00
2022-09-13T17:30:36.887Z,9.40
2022-09-13T17:35:36.337Z,9.20
2022-09-13T17:40:35.903Z,10.40
2022-09-13T17:45:35.389Z,9.70
2022-09-13T17:50:35.241Z,11.50
2022-09-13T17:55:34.601Z,9.60
2022-09-13T18:00:34.025Z,11.40
2022-09-13T18:05:33.885Z,12.10
2022-09-13T18:10:58.074Z,12.00
2022-09-13T18:16:05.284Z,9.80
2022-09-13T18:21:06.732Z,10.30
2022-09-13T18:26:11.027Z,9.20
2022-09-13T18:31:15.215Z,10.90
2022-09-13T18:36:19.525Z,9.50
2022-09-13T18:41:22.318Z,10.50
2022-09-13T18:46:25.115Z,10.10
2022-09-13T18:51:29.164Z,12.10
2022-09-13T18:56:29.605Z,12.00
2022-09-13T19:01:34.796Z,12.90
2022-09-13T19:06:40.685Z,12.50
2022-09-13T19:11:48.748Z,12.00
2022-09-13T19:16:49.191Z,10.60
2022-09-13T19:21:49.816Z,14.00
2022-09-13T19:26:58.711Z,12.10
2022-09-13T19:32:01.726Z,12.30
2022-09-13T19:37:02.423Z,11.60
2022-09-13T19:42:04.147Z,11.90
2022-09-13T19:47:53.215Z,12.20
2022-09-13T19:52:32.453Z,10.50
2022-09-13T19:57:34.410Z,11.40
2022-09-13T20:02:38.989Z,12.90
2022-09-13T20:07:38.294Z,11.60
2022-09-13T20:12:40.684Z,13.60
2022-09-13T20:17:46.438Z,11.90
2022-09-13T20:22:45.947Z,10.40
2022-09-13T20:27:45.974Z,11.00
2022-09-13T20:32:50.002Z,10.50
2022-09-13T20:37:52.307Z,9.50
2022-09-13T20:42:53.046Z,11.80
2022-09-13T20:47:52.821Z,12.60
2022-09-13T20:52:53.591Z,11.70
2022-09-13T20:57:55.720Z,11.80
2022-09-13T21:02:54.662Z,12.40
2022-09-13T21:08:11.306Z,11.00
2022-09-13T21:13:10.502Z,11.30
2022-09-13T21:18:10.185Z,11.10
2022-09-13T21:23:09.553Z,10.30
2022-09-13T21:28:11.209Z,12.10
2022-09-13T21:33:10.985Z,11.90
2022-09-13T21:38:09.935Z,13.40
2022-09-13T21:43:08.810Z,13.10
2022-09-13T21:48:08.449Z,13.80
2022-09-13T21:53:07.294Z,15.30
2022-09-13T21:58:06.637Z,13.60
2022-09-13T22:03:06.385Z,12.30
2022-09-13T22:08:06.502Z,12.90
2022-09-13T22:13:05.373Z,13.30
2022-09-13T22:18:04.201Z,11.20
2022-09-13T22:23:05.944Z,12.30
2022-09-13T22:28:05.800Z,12.00
2022-09-13T22:33:05.616Z,10.60
2022-09-13T22:38:04.838Z,12.90
2022-09-13T22:43:05.500Z,10.80
2022-09-13T22:48:04.513Z,16.90
2022-09-13T22:53:03.507Z,13.20
2022-09-13T22:58:02.676Z,12.60
2022-09-13T23:03:03.142Z,10.90
2022-09-13T23:08:02.714Z,10.30
2022-09-13T23:13:02.906Z,9.80
2022-09-13T23:18:02.188Z,9.90
2022-09-13T23:23:01.274Z,7.80
2022-09-13T23:28:00.966Z,7.90
2022-09-13T23:32:59.625Z,8.40
2022-09-13T23:37:59.986Z,6.90
2022-09-13T23:42:59.363Z,7.50
2022-09-13T23:47:57.924Z,7.10
2022-09-13T23:52:57.404Z,6.50
2022-09-13T23:57:56.665Z,8.60
